createdAt,value
2023-04-05T00:00:35.107Z,22.90
2023-04-05T00:03:13.439Z,24.50
2023-04-05T00:05:46.388Z,21.80
2023-04-05T00:08:24.208Z,20.60
2023-04-05T00:10:52.177Z,24.57
2023-04-05T00:13:31.569Z,20.90
2023-04-05T00:16:03.129Z,22.30
2023-04-05T00:18:34.847Z,23.63
2023-04-05T00:21:02.942Z,19.87
2023-04-05T00:23:38.053Z,21.33
2023-04-05T00:26:06.384Z,22.70
2023-04-05T00:28:36.819Z,21.30
2023-04-05T00:31:08.978Z,22.17
2023-04-05T00:33:37.968Z,20.30
2023-04-05T00:36:12.993Z,22.67
2023-04-05T00:38:42.218Z,23.10
2023-04-05T00:41:12.315Z,22.87
2023-04-05T00:43:44.255Z,20.27
2023-04-05T00:46:14.277Z,26.07
2023-04-05T00:48:43.064Z,23.83
2023-04-05T00:51:12.068Z,23.07
2023-04-05T00:53:43.589Z,24.77
2023-04-05T00:56:14.131Z,23.13
2023-04-05T00:58:52.275Z,24.73
2023-04-05T01:01:23.097Z,24.73
2023-04-05T01:04:03.648Z,27.20
2023-04-05T01:06:58.767Z,28.40
2023-04-05T01:09:54.306Z,26.67
2023-04-05T01:12:25.087Z,32.33
2023-04-05T01:14:55.985Z,27.57
2023-04-05T01:17:28.659Z,26.83
2023-04-05T01:20:02.142Z,28.53
2023-04-05T01:22:49.522Z,27.83
2023-04-05T01:25:41.845Z,25.00
2023-04-05T01:28:59.410Z,28.70
2023-04-05T01:31:36.355Z,26.40
2023-04-05T01:34:30.730Z,26.33
2023-04-05T01:37:07.021Z,26.37
2023-04-05T01:39:41.844Z,31.70
2023-04-05T01:42:14.334Z,27.77
2023-04-05T01:44:46.613Z,26.30
2023-04-05T01:47:18.230Z,23.53
2023-04-05T01:49:47.415Z,26.93
2023-04-05T01:52:15.789Z,25.20
2023-04-05T01:54:45.217Z,27.77
2023-04-05T01:57:13.682Z,25.93
2023-04-05T01:59:42.279Z,24.07
2023-04-05T02:02:14.249Z,26.10
2023-04-05T02:04:42.819Z,27.40
2023-04-05T02:07:13.562Z,24.57
2023-04-05T02:09:42.215Z,26.57
2023-04-05T02:12:10.905Z,26.10
2023-04-05T02:14:40.381Z,25.57
2023-04-05T02:17:08.610Z,25.13
2023-04-05T02:19:46.784Z,29.80
2023-04-05T02:22:16.247Z,24.77
2023-04-05T02:25:13.829Z,28.30
2023-04-05T02:27:45.854Z,25.67
2023-04-05T02:30:15.975Z,27.10
2023-04-05T02:32:47.770Z,26.87
2023-04-05T02:35:19.812Z,27.10
2023-04-05T02:37:48.272Z,24.83
2023-04-05T02:40:20.054Z,27.57
2023-04-05T02:42:48.215Z,29.63
2023-04-05T02:45:16.465Z,29.27
2023-04-05T02:47:45.668Z,24.27
2023-04-05T02:50:17.347Z,28.97
2023-04-05T02:52:49.225Z,24.80
2023-04-05T02:55:17.778Z,29.47
2023-04-05T02:57:46.956Z,25.73
2023-04-05T03:00:16.259Z,25.53
2023-04-05T03:02:44.555Z,26.43
2023-04-05T03:05:14.377Z,25.77
2023-04-05T03:07:47.316Z,26.17
2023-04-05T03:10:19.630Z,26.30
2023-04-05T03:12:48.570Z,26.80
2023-04-05T03:15:17.034Z,27.13
2023-04-05T03:17:49.687Z,26.73
2023-04-05T03:20:17.951Z,29.80
2023-04-05T03:22:47.525Z,24.90
2023-04-05T03:25:17.796Z,30.17
2023-04-05T03:27:46.949Z,25.77
2023-04-05T03:30:18.729Z,25.60
2023-04-05T03:33:04.772Z,29.37
2023-04-05T03:35:33.271Z,25.90
2023-04-05T03:38:02.072Z,22.17
2023-04-05T03:40:30.302Z,23.53
2023-04-05T03:43:00.903Z,28.40
2023-04-05T03:45:30.835Z,24.60
2023-04-05T03:47:59.894Z,24.50
2023-04-05T03:50:28.696Z,23.97
2023-04-05T03:53:01.238Z,21.47
2023-04-05T03:55:32.643Z,22.93
2023-04-05T03:58:01.221Z,22.00
2023-04-05T04:00:31.449Z,22.70
2023-04-05T04:03:07.982Z,23.17
2023-04-05T04:05:40.257Z,23.73
2023-04-05T04:08:10.853Z,19.70
2023-04-05T04:10:39.282Z,22.63
2023-04-05T04:13:09.674Z,19.57
2023-04-05T04:15:38.060Z,21.90
2023-04-05T04:18:06.781Z,18.60
2023-04-05T04:20:35.809Z,19.67
2023-04-05T04:23:05.328Z,19.00
2023-04-05T04:25:33.459Z,20.87
2023-04-05T04:28:02.063Z,18.47
2023-04-05T04:30:30.452Z,19.67
2023-04-05T04:33:00.236Z,17.60
2023-04-05T04:35:30.026Z,20.27
2023-04-05T04:38:05.434Z,17.80
2023-04-05T04:40:39.466Z,17.73
2023-04-05T04:43:19.353Z,22.03
2023-04-05T04:45:48.665Z,19.20
2023-04-05T04:48:17.620Z,19.13
2023-04-05T04:50:48.807Z,20.50
2023-04-05T04:53:20.087Z,21.30
2023-04-05T04:55:51.449Z,18.88
2023-04-05T04:58:19.895Z,19.02
2023-04-05T05:00:50.337Z,18.30
2023-04-05T05:03:19.724Z,20.95
2023-04-05T05:05:50.673Z,19.85
2023-04-05T05:08:21.358Z,18.35
2023-04-05T05:10:57.408Z,18.40
2023-04-05T05:13:27.921Z,20.23
2023-04-05T05:15:56.525Z,15.68
2023-04-05T05:18:25.790Z,19.92
2023-04-05T05:20:54.706Z,23.90
2023-04-05T05:23:25.521Z,21.27
2023-04-05T05:26:01.200Z,20.60
2023-04-05T05:28:29.293Z,22.88
2023-04-05T05:30:57.802Z,20.05
2023-04-05T05:33:26.800Z,19.70
2023-04-05T05:35:55.175Z,19.60
2023-04-05T05:38:24.017Z,17.33
2023-04-05T05:40:59.261Z,16.98
2023-04-05T05:43:27.436Z,24.08
2023-04-05T05:45:55.932Z,20.40
2023-04-05T05:48:24.203Z,19.63
2023-04-05T05:50:52.271Z,21.77
2023-04-05T05:53:20.980Z,19.45
2023-04-05T05:55:51.695Z,20.40
2023-04-05T05:58:20.254Z,20.13
2023-04-05T06:00:50.590Z,17.50
2023-04-05T06:03:19.549Z,19.87
2023-04-05T06:05:58.718Z,17.40
2023-04-05T06:08:30.571Z,20.93
2023-04-05T06:11:01.615Z,19.07
2023-04-05T06:13:30.602Z,17.73
2023-04-05T06:16:06.504Z,18.77
2023-04-05T06:18:35.298Z,15.60
2023-04-05T06:21:03.933Z,18.37
2023-04-05T06:23:34.412Z,16.33
2023-04-05T06:26:03.102Z,17.47
2023-04-05T06:28:30.778Z,22.20
2023-04-05T06:30:59.961Z,18.00
2023-04-05T06:33:28.567Z,20.27
2023-04-05T06:35:56.676Z,18.97
2023-04-05T06:38:26.737Z,28.53
2023-04-05T06:40:57.886Z,16.73
2023-04-05T06:43:25.863Z,19.03
2023-04-05T06:45:56.681Z,24.90
2023-04-05T06:48:26.054Z,13.27
2023-04-05T06:51:02.258Z,17.27
2023-04-05T06:53:41.215Z,19.37
2023-04-05T06:56:11.738Z,16.70
2023-04-05T06:58:40.738Z,14.63
2023-04-05T07:01:09.142Z,18.57
2023-04-05T07:03:42.849Z,16.17
2023-04-05T07:08:56.545Z,20.90
2023-04-05T07:11:24.998Z,16.33
2023-04-05T07:13:55.241Z,17.13
2023-04-05T07:16:24.385Z,15.27
2023-04-05T07:18:52.952Z,17.53
2023-04-05T07:21:24.773Z,20.13
2023-04-05T07:23:56.373Z,16.23
2023-04-05T07:26:30.741Z,19.63
2023-04-05T07:29:00.644Z,20.33
2023-04-05T07:31:29.673Z,16.33
2023-04-05T07:34:01.074Z,23.30
2023-04-05T07:36:31.237Z,16.57
2023-04-05T07:39:02.195Z,16.90
2023-04-05T07:41:32.216Z,18.23
2023-04-05T07:44:02.594Z,16.10
2023-04-05T07:46:31.476Z,20.43
2023-04-05T07:48:59.853Z,20.50
2023-04-05T07:51:28.748Z,16.57
2023-04-05T07:54:01.871Z,15.33
2023-04-05T07:56:37.498Z,23.87
2023-04-05T07:59:05.752Z,16.37
2023-04-05T08:01:35.640Z,18.90
2023-04-05T08:04:03.528Z,14.57
2023-04-05T08:06:31.633Z,15.23
2023-04-05T08:08:59.670Z,16.57
2023-04-05T08:11:32.636Z,22.73
2023-04-05T08:14:01.772Z,18.33
2023-04-05T08:19:17.072Z,12.10
2023-04-05T08:21:45.289Z,19.20
2023-04-05T08:24:14.078Z,19.63
2023-04-05T08:26:42.518Z,20.57
2023-04-05T08:29:11.506Z,21.07
2023-04-05T08:31:41.214Z,15.93
2023-04-05T08:34:10.262Z,16.87
2023-04-05T08:36:38.617Z,10.63
2023-04-05T08:39:07.607Z,14.27
2023-04-05T08:41:37.780Z,12.97
2023-04-05T08:44:06.349Z,18.47
2023-04-05T08:46:35.814Z,12.53
2023-04-05T08:49:08.483Z,14.13
2023-04-05T08:51:40.176Z,10.93
2023-04-05T08:54:10.683Z,16.07
2023-04-05T08:56:39.605Z,11.83
2023-04-05T08:59:12.079Z,20.73
2023-04-05T09:01:45.260Z,12.27
2023-04-05T09:04:24.899Z,17.90
2023-04-05T09:06:56.438Z,15.60
2023-04-05T09:09:36.291Z,12.80
2023-04-05T09:12:06.017Z,13.90
2023-04-05T09:14:39.021Z,17.50
2023-04-05T09:17:11.626Z,19.80
2023-04-05T09:19:39.747Z,11.73
2023-04-05T09:22:09.054Z,15.80
2023-04-05T09:24:42.508Z,13.70
2023-04-05T09:27:15.154Z,8.80
2023-04-05T09:29:45.347Z,14.67
2023-04-05T09:32:16.794Z,9.73
2023-04-05T09:34:45.013Z,16.67
2023-04-05T09:37:21.208Z,15.60
2023-04-05T09:39:52.165Z,11.83
2023-04-05T09:42:23.461Z,17.80
2023-04-05T09:45:08.486Z,16.50
2023-04-05T09:47:37.993Z,9.97
2023-04-05T09:50:15.044Z,12.87
2023-04-05T09:52:44.155Z,13.23
2023-04-05T09:55:12.580Z,13.20
2023-04-05T09:57:44.280Z,16.50
2023-04-05T10:00:21.589Z,11.07
2023-04-05T10:02:54.901Z,12.67
2023-04-05T10:05:29.243Z,11.10
2023-04-05T10:07:57.589Z,12.20
2023-04-05T10:10:26.790Z,7.73
2023-04-05T10:12:56.730Z,14.17
2023-04-05T10:15:26.970Z,13.90
2023-04-05T10:18:01.829Z,12.87
2023-04-05T10:20:33.446Z,14.53
2023-04-05T10:23:13.781Z,10.10
2023-04-05T10:25:56.359Z,15.97
2023-04-05T10:28:35.894Z,17.40
2023-04-05T10:31:37.092Z,12.10
2023-04-05T10:34:24.383Z,10.90
2023-04-05T10:37:04.901Z,11.77
2023-04-05T10:39:43.792Z,12.97
2023-04-05T10:42:22.932Z,20.37
2023-04-05T10:45:00.417Z,22.13
2023-04-05T10:47:29.612Z,42.20
2023-04-05T10:50:04.857Z,28.13
2023-04-05T10:52:33.558Z,50.07
2023-04-05T10:55:03.927Z,30.47
2023-04-05T10:57:32.675Z,32.57
2023-04-05T11:00:01.956Z,27.03
2023-04-05T11:02:46.503Z,39.80
2023-04-05T11:05:38.009Z,28.47
2023-04-05T11:08:10.055Z,30.00
2023-04-05T11:10:52.093Z,36.37
2023-04-05T11:13:51.708Z,37.37
2023-04-05T11:16:21.062Z,37.90
2023-04-05T11:18:56.704Z,30.53
2023-04-05T11:21:26.600Z,29.43
2023-04-05T11:24:06.991Z,38.17
2023-04-05T11:26:56.356Z,29.70
2023-04-05T11:29:49.834Z,34.77
2023-04-05T11:32:18.675Z,36.83
2023-04-05T11:35:03.959Z,24.73
2023-04-05T11:38:12.390Z,22.33
2023-04-05T11:40:43.917Z,15.90
2023-04-05T11:43:12.833Z,20.93
2023-04-05T11:45:44.309Z,26.33
2023-04-05T11:48:15.747Z,27.67
2023-04-05T11:50:45.780Z,30.93
2023-04-05T11:53:16.379Z,28.48
2023-04-05T11:55:52.271Z,27.33
2023-04-05T11:58:25.612Z,23.60
2023-04-05T12:01:06.850Z,33.27
2023-04-05T12:03:37.495Z,38.13
2023-04-05T12:06:08.090Z,34.87
2023-04-05T12:08:40.870Z,42.60
2023-04-05T12:11:12.258Z,47.53
2023-04-05T12:13:40.858Z,41.75
2023-04-05T12:16:09.943Z,53.97
2023-04-05T12:18:39.435Z,34.67
2023-04-05T12:21:11.509Z,38.60
2023-04-05T12:23:39.934Z,36.95
2023-04-05T12:26:08.947Z,34.90
2023-04-05T12:29:09.733Z,41.00
2023-04-05T12:31:47.758Z,34.67
2023-04-05T12:34:16.792Z,36.13
2023-04-05T12:36:46.850Z,45.63
2023-04-05T12:39:17.706Z,47.70
2023-04-05T12:41:57.475Z,38.50
2023-04-05T12:44:30.832Z,23.83
2023-04-05T12:47:09.559Z,29.03
2023-04-05T12:49:40.562Z,29.70
2023-04-05T12:52:09.170Z,28.67
2023-04-05T12:54:46.528Z,25.60
2023-04-05T12:57:14.836Z,26.90
2023-04-05T12:59:44.627Z,21.27
2023-04-05T13:02:13.262Z,16.67
2023-04-05T13:04:41.743Z,24.77
2023-04-05T13:07:12.952Z,23.50
2023-04-05T13:09:41.375Z,20.13
2023-04-05T13:12:09.836Z,16.60
2023-04-05T13:14:41.065Z,21.23
2023-04-05T13:17:09.183Z,27.07
2023-04-05T13:19:39.816Z,24.87
2023-04-05T13:22:09.268Z,23.97
2023-04-05T13:24:37.354Z,21.93
2023-04-05T13:27:08.328Z,23.63
2023-04-05T13:29:37.253Z,26.33
2023-04-05T13:32:06.365Z,25.33
2023-04-05T13:34:34.425Z,31.40
2023-04-05T13:37:02.496Z,29.90
2023-04-05T13:39:32.863Z,26.50
2023-04-05T13:42:02.358Z,19.93
2023-04-05T13:44:38.833Z,32.20
2023-04-05T13:47:07.863Z,31.73
2023-04-05T13:49:36.834Z,35.70
2023-04-05T13:52:05.971Z,23.63
2023-04-05T13:54:33.898Z,34.27
2023-04-05T13:57:08.972Z,21.83
2023-04-05T13:59:37.513Z,24.07
2023-04-05T14:02:12.242Z,18.13
2023-04-05T14:04:41.339Z,22.73
2023-04-05T14:07:12.256Z,18.33
2023-04-05T14:09:40.742Z,25.37
2023-04-05T14:12:11.234Z,19.33
2023-04-05T14:14:42.684Z,19.17
2023-04-05T14:17:17.182Z,16.17
2023-04-05T14:19:47.924Z,20.23
2023-04-05T14:22:16.547Z,16.67
2023-04-05T14:24:48.181Z,16.83
2023-04-05T14:27:16.638Z,15.73
2023-04-05T14:29:47.785Z,14.00
2023-04-05T14:32:16.143Z,13.40
2023-04-05T14:34:44.312Z,12.00
2023-04-05T14:37:12.679Z,15.90
2023-04-05T14:39:45.447Z,15.93
2023-04-05T14:42:14.153Z,12.53
2023-04-05T14:44:42.279Z,14.07
2023-04-05T14:47:10.676Z,14.93
2023-04-05T14:49:38.792Z,12.97
2023-04-05T14:52:07.255Z,14.50
2023-04-05T14:54:35.511Z,10.00
2023-04-05T14:57:03.932Z,17.07
2023-04-05T14:59:32.684Z,17.63
2023-04-05T15:02:01.462Z,15.43
2023-04-05T15:04:31.204Z,22.23
2023-04-05T15:06:59.559Z,20.77
2023-04-05T15:09:28.035Z,18.03
2023-04-05T15:11:57.100Z,20.90
2023-04-05T15:14:31.809Z,14.77
2023-04-05T15:17:00.888Z,17.07
2023-04-05T15:19:30.881Z,17.60
2023-04-05T15:22:02.324Z,14.80
2023-04-05T15:24:37.918Z,18.90
2023-04-05T15:27:09.031Z,20.73
2023-04-05T15:29:42.605Z,14.23
2023-04-05T15:32:11.178Z,13.33
2023-04-05T15:34:40.796Z,13.07
2023-04-05T15:37:10.681Z,16.97
2023-04-05T15:39:39.072Z,14.33
2023-04-05T15:42:07.176Z,15.25
2023-04-05T15:44:35.043Z,22.07
2023-04-05T15:47:04.189Z,19.77
2023-04-05T15:49:34.390Z,14.37
2023-04-05T15:52:03.082Z,17.17
2023-04-05T15:54:34.366Z,17.93
2023-04-05T15:57:04.838Z,17.00
2023-04-05T15:59:32.784Z,21.30
2023-04-05T16:02:01.130Z,19.77
2023-04-05T16:04:30.736Z,21.93
2023-04-05T16:07:00.626Z,21.90
2023-04-05T16:09:30.476Z,23.20
2023-04-05T16:12:00.064Z,24.87
2023-04-05T16:14:34.676Z,22.53
2023-04-05T16:17:03.049Z,14.67
2023-04-05T16:19:32.299Z,15.77
2023-04-05T16:22:03.716Z,16.93
2023-04-05T16:24:33.689Z,17.30
2023-04-05T16:27:06.245Z,20.73
2023-04-05T16:29:36.462Z,20.00
2023-04-05T16:32:08.494Z,23.05
2023-04-05T16:34:37.311Z,21.57
2023-04-05T16:37:05.912Z,16.87
2023-04-05T16:39:36.985Z,19.27
2023-04-05T16:42:05.351Z,19.53
2023-04-05T16:44:33.604Z,15.40
2023-04-05T16:47:06.870Z,19.53
2023-04-05T16:49:35.419Z,21.23
2023-04-05T16:52:03.757Z,22.97
2023-04-05T16:54:40.801Z,18.47
2023-04-05T16:57:09.590Z,19.43
2023-04-05T16:59:38.694Z,12.90
2023-04-05T17:02:07.750Z,17.13
2023-04-05T17:04:37.778Z,16.93
2023-04-05T17:07:06.586Z,18.70
2023-04-05T17:09:35.358Z,19.40
2023-04-05T17:12:04.745Z,20.90
2023-04-05T17:14:34.559Z,18.77
2023-04-05T17:17:02.582Z,20.77
2023-04-05T17:19:31.013Z,23.90
2023-04-05T17:22:02.312Z,18.87
2023-04-05T17:24:37.938Z,26.67
2023-04-05T17:27:10.116Z,34.53
2023-04-05T17:29:40.017Z,23.70
2023-04-05T17:32:08.607Z,22.20
2023-04-05T17:34:37.161Z,27.87
2023-04-05T17:37:07.324Z,19.13
2023-04-05T17:39:37.586Z,20.03
2023-04-05T17:42:05.785Z,20.60
2023-04-05T17:44:37.080Z,20.93
2023-04-05T17:47:09.031Z,28.23
2023-04-05T17:49:38.500Z,16.97
2023-04-05T17:52:13.064Z,14.20
2023-04-05T17:54:42.583Z,19.87
2023-04-05T17:57:18.332Z,15.60
2023-04-05T17:59:46.634Z,16.63
2023-04-05T18:02:15.477Z,17.30
2023-04-05T18:04:44.781Z,18.97
2023-04-05T18:07:13.141Z,14.60
2023-04-05T18:09:46.445Z,16.47
2023-04-05T18:12:14.791Z,15.03
2023-04-05T18:14:46.296Z,14.20
2023-04-05T18:17:15.768Z,16.53
2023-04-05T18:19:45.202Z,16.63
2023-04-05T18:22:13.943Z,18.27
2023-04-05T18:24:48.061Z,16.83
2023-04-05T18:27:16.473Z,15.10
2023-04-05T18:29:49.040Z,17.07
2023-04-05T18:32:32.313Z,14.10
2023-04-05T18:35:00.808Z,18.60
2023-04-05T18:37:29.309Z,15.67
2023-04-05T18:39:57.740Z,17.90
2023-04-05T18:42:26.253Z,18.47
2023-04-05T18:44:54.551Z,28.87
2023-04-05T18:47:22.864Z,44.83
2023-04-05T18:49:52.606Z,40.80
2023-04-05T18:52:26.752Z,40.37
2023-04-05T18:54:58.772Z,36.43
2023-04-05T18:57:30.177Z,20.37
2023-04-05T18:59:58.526Z,17.10
2023-04-05T19:02:27.159Z,14.70
2023-04-05T19:04:55.665Z,15.67
2023-04-05T19:07:24.377Z,15.82
2023-04-05T19:09:52.693Z,11.13
2023-04-05T19:12:21.552Z,14.03
2023-04-05T19:16:47.412Z,13.88
2023-04-05T19:19:16.561Z,11.03
2023-04-05T19:21:52.934Z,13.50
2023-04-05T19:24:22.543Z,13.90
2023-04-05T19:26:51.297Z,8.57
2023-04-05T19:29:21.594Z,9.30
2023-04-05T19:32:14.288Z,11.37
2023-04-05T19:34:45.716Z,11.00
2023-04-05T19:37:18.982Z,12.30
2023-04-05T19:39:48.614Z,8.20
2023-04-05T19:42:17.428Z,12.73
2023-04-05T19:44:55.440Z,18.43
2023-04-05T19:47:27.312Z,12.23
2023-04-05T19:49:57.101Z,9.97
2023-04-05T19:52:44.331Z,23.83
2023-04-05T19:55:34.186Z,17.30
2023-04-05T19:58:10.769Z,17.33
2023-04-05T20:00:52.918Z,17.07
2023-04-05T20:03:37.611Z,15.03
2023-04-05T20:06:10.182Z,12.97
2023-04-05T20:08:41.815Z,15.87
2023-04-05T20:11:17.423Z,10.17
2023-04-05T20:13:57.291Z,11.37
2023-04-05T20:16:37.396Z,11.93
2023-04-05T20:19:08.173Z,12.93
2023-04-05T20:21:40.297Z,14.33
2023-04-05T20:24:12.979Z,15.60
2023-04-05T20:26:46.557Z,14.33
2023-04-05T20:29:17.644Z,11.00
2023-04-05T20:31:47.308Z,9.70
2023-04-05T20:34:20.407Z,12.70
2023-04-05T20:36:51.197Z,13.17
2023-04-05T20:39:23.915Z,9.40
2023-04-05T20:41:52.846Z,14.37
2023-04-05T20:44:28.928Z,10.63
2023-04-05T20:46:58.580Z,15.70
2023-04-05T20:49:28.632Z,16.93
2023-04-05T20:52:01.057Z,12.13
2023-04-05T20:54:29.787Z,11.73
2023-04-05T20:56:58.878Z,13.93
2023-04-05T20:59:28.797Z,10.47
2023-04-05T21:01:56.934Z,9.67
2023-04-05T21:04:29.357Z,11.43
2023-04-05T21:06:58.984Z,12.20
2023-04-05T21:09:29.560Z,11.17
2023-04-05T21:11:59.235Z,11.77
2023-04-05T21:14:28.536Z,10.93
2023-04-05T21:16:56.792Z,13.80
2023-04-05T21:19:26.261Z,10.83
2023-04-05T21:21:54.666Z,16.37
2023-04-05T21:24:22.893Z,12.77
2023-04-05T21:26:51.250Z,15.87
2023-04-05T21:29:23.436Z,13.33
2023-04-05T21:31:51.778Z,17.23
2023-04-05T21:34:20.302Z,17.63
2023-04-05T21:36:50.001Z,15.00
2023-04-05T21:39:18.195Z,11.80
2023-04-05T21:41:46.953Z,12.03
2023-04-05T21:44:20.936Z,13.57
2023-04-05T21:46:49.888Z,13.77
2023-04-05T21:49:25.292Z,11.70
2023-04-05T21:51:53.675Z,11.20
2023-04-05T21:54:22.113Z,10.73
2023-04-05T21:56:52.995Z,9.53
2023-04-05T21:59:22.176Z,14.70
2023-04-05T22:02:01.842Z,11.57
2023-04-05T22:04:31.377Z,9.67
2023-04-05T22:07:00.131Z,16.73
2023-04-05T22:09:29.129Z,14.23
2023-04-05T22:12:02.351Z,12.40
2023-04-05T22:14:31.124Z,13.50
2023-04-05T22:16:59.428Z,10.63
2023-04-05T22:19:32.785Z,10.83
2023-04-05T22:22:04.169Z,11.57
2023-04-05T22:24:32.500Z,13.83
2023-04-05T22:27:01.348Z,12.80
2023-04-05T22:29:29.731Z,15.77
2023-04-05T22:32:00.321Z,15.30
2023-04-05T22:34:29.169Z,12.03
2023-04-05T22:36:57.873Z,15.50
2023-04-05T22:39:26.685Z,14.17
2023-04-05T22:41:55.390Z,16.57
2023-04-05T22:44:24.966Z,15.43
2023-04-05T22:46:55.379Z,15.63
2023-04-05T22:49:23.387Z,13.53
2023-04-05T22:51:51.632Z,12.80
2023-04-05T22:54:19.651Z,15.07
2023-04-05T22:56:47.913Z,15.17
2023-04-05T22:59:20.474Z,10.90
2023-04-05T23:01:51.023Z,15.30
2023-04-05T23:04:19.440Z,12.47
2023-04-05T23:06:48.092Z,10.20
2023-04-05T23:09:16.690Z,14.10
2023-04-05T23:11:47.309Z,9.60
2023-04-05T23:14:16.565Z,12.60
2023-04-05T23:16:46.320Z,18.53
2023-04-05T23:19:17.151Z,13.63
2023-04-05T23:21:45.827Z,14.17
2023-04-05T23:24:14.271Z,19.73
2023-04-05T23:26:42.483Z,16.77
2023-04-05T23:29:14.944Z,10.70
2023-04-05T23:31:43.780Z,14.83
2023-04-05T23:34:15.088Z,10.13
2023-04-05T23:36:46.788Z,12.03
2023-04-05T23:39:15.420Z,10.60
2023-04-05T23:41:43.733Z,11.27
2023-04-05T23:44:12.096Z,11.87
2023-04-05T23:47:05.479Z,13.77
2023-04-05T23:49:34.348Z,12.00
2023-04-05T23:52:02.784Z,13.60
2023-04-05T23:54:30.902Z,11.53
2023-04-05T23:56:59.817Z,11.80
2023-04-05T23:59:27.954Z,19.00
